createdAt,value
2023-05-15T00:00:49.024Z,12.3
2023-05-15T00:01:49.049Z,12.3
2023-05-15T00:02:49.102Z,12.3
2023-05-15T00:03:53.551Z,12.3
2023-05-15T00:04:49.159Z,12.3
2023-05-15T00:05:49.013Z,12.3
2023-05-15T00:06:49.165Z,12.3
2023-05-15T00:08:03.082Z,12.3
2023-05-15T00:08:49.021Z,12.3
2023-05-15T00:09:48.993Z,12.3
2023-05-15T00:11:00.210Z,12.3
2023-05-15T00:11:49.189Z,12.3
2023-05-15T00:12:49.058Z,12.3
2023-05-15T00:13:49.169Z,12.3
2023-05-15T00:14:49.194Z,12.3
2023-05-15T00:15:49.141Z,12.3
2023-05-15T00:16:49.159Z,12.3
2023-05-15T00:17:49.152Z,12.3
2023-05-15T00:18:49.378Z,12.3
2023-05-15T00:19:48.993Z,12.3
2023-05-15T00:20:48.997Z,12.3
2023-05-15T00:21:49.118Z,12.3
2023-05-15T00:22:48.954Z,12.3
2023-05-15T00:23:48.989Z,12.3
2023-05-15T00:24:48.977Z,12.3
2023-05-15T00:25:48.940Z,12.3
2023-05-15T00:26:49.018Z,12.3
2023-05-15T00:27:49.007Z,12.3
2023-05-15T00:28:49.331Z,12.3
2023-05-15T00:29:49.033Z,12.3
2023-05-15T00:30:48.981Z,12.3
2023-05-15T00:31:49.084Z,12.3
2023-05-15T00:32:49.013Z,12.3
2023-05-15T00:33:48.999Z,12.3
2023-05-15T00:34:48.989Z,12.3
2023-05-15T00:35:48.965Z,12.3
2023-05-15T00:36:48.976Z,12.3
2023-05-15T00:37:48.974Z,12.3
2023-05-15T00:38:48.976Z,12.3
2023-05-15T00:39:49.143Z,12.3
2023-05-15T00:40:48.967Z,12.3
2023-05-15T00:41:48.977Z,12.3
2023-05-15T00:42:48.959Z,12.3
2023-05-15T00:43:48.970Z,12.3
2023-05-15T00:44:48.937Z,12.3
2023-05-15T00:45:48.979Z,12.3
2023-05-15T00:46:49.019Z,12.3
2023-05-15T00:47:49.052Z,12.3
2023-05-15T00:48:48.921Z,12.3
2023-05-15T00:49:50.201Z,12.3
2023-05-15T00:50:49.148Z,12.2
2023-05-15T00:51:48.916Z,12.2
2023-05-15T00:52:48.998Z,12.2
2023-05-15T00:53:48.936Z,12.3
2023-05-15T00:54:48.929Z,12.2
2023-05-15T00:55:48.999Z,12.2
2023-05-15T00:56:48.926Z,12.2
2023-05-15T00:57:48.926Z,12.2
2023-05-15T01:00:49.051Z,12.2
2023-05-15T01:01:49.080Z,12.2
2023-05-15T01:02:49.098Z,12.2
2023-05-15T01:03:48.934Z,12.2
2023-05-15T01:04:48.892Z,12.2
2023-05-15T01:05:48.908Z,12.2
2023-05-15T01:06:48.984Z,12.2
2023-05-15T01:07:48.913Z,12.2
2023-05-15T01:09:48.897Z,12.2
2023-05-15T01:10:48.907Z,12.1
2023-05-15T01:11:48.995Z,12.1
2023-05-15T01:12:49.157Z,12.2
2023-05-15T01:13:48.956Z,12.2
2023-05-15T01:14:53.378Z,12.1
2023-05-15T01:15:48.898Z,12.1
2023-05-15T01:16:48.913Z,12.1
2023-05-15T01:17:48.923Z,12.1
2023-05-15T01:18:49.022Z,12.1
2023-05-15T01:19:49.009Z,12.1
2023-05-15T01:20:48.882Z,12.1
2023-05-15T01:21:48.913Z,12.1
2023-05-15T01:22:49.257Z,12.1
2023-05-15T01:23:48.871Z,12.1
2023-05-15T01:24:48.878Z,12.1
2023-05-15T01:25:48.936Z,12.1
2023-05-15T01:26:48.884Z,12.1
2023-05-15T01:27:48.926Z,12.1
2023-05-15T01:28:48.892Z,12.1
2023-05-15T01:29:48.864Z,12.1
2023-05-15T01:30:48.861Z,12.1
2023-05-15T01:31:48.898Z,12.1
2023-05-15T01:32:48.948Z,12.1
2023-05-15T01:33:48.877Z,12.1
2023-05-15T01:34:48.958Z,12.1
2023-05-15T01:35:48.829Z,12.1
2023-05-15T01:36:48.855Z,12.1
2023-05-15T01:37:48.872Z,12.1
2023-05-15T01:38:48.905Z,12.1
2023-05-15T01:39:48.908Z,12.1
2023-05-15T01:40:48.844Z,12.1
2023-05-15T01:41:48.907Z,12.1
2023-05-15T01:42:48.861Z,12.1
2023-05-15T01:43:48.858Z,12.1
2023-05-15T01:44:48.855Z,12.1
2023-05-15T01:45:48.984Z,12.1
2023-05-15T01:46:48.993Z,12.1
2023-05-15T01:47:48.900Z,12.1
2023-05-15T01:48:48.874Z,12.1
2023-05-15T01:49:48.831Z,12.1
2023-05-15T01:50:48.833Z,12.1
2023-05-15T01:51:48.832Z,12.0
2023-05-15T01:52:48.872Z,12.0
2023-05-15T01:53:48.859Z,12.0
2023-05-15T01:54:48.830Z,12.0
2023-05-15T01:55:48.834Z,12.0
2023-05-15T01:56:48.932Z,12.0
2023-05-15T01:57:49.054Z,12.0
2023-05-15T01:58:48.862Z,12.0
2023-05-15T01:59:49.694Z,12.0
2023-05-15T02:00:48.857Z,12.0
2023-05-15T02:01:48.911Z,12.0
2023-05-15T02:02:48.908Z,12.0
2023-05-15T02:03:48.904Z,12.0
2023-05-15T02:04:48.810Z,12.0
2023-05-15T02:05:48.810Z,12.0
2023-05-15T02:06:48.838Z,12.0
2023-05-15T02:07:48.809Z,12.0
2023-05-15T02:08:48.840Z,12.0
2023-05-15T02:09:48.857Z,12.0
2023-05-15T02:10:48.872Z,12.0
2023-05-15T02:11:48.808Z,12.0
2023-05-15T02:12:48.845Z,12.0
2023-05-15T02:13:48.853Z,12.0
2023-05-15T02:14:48.844Z,12.0
2023-05-15T02:15:48.839Z,12.1
2023-05-15T02:16:48.875Z,12.0
2023-05-15T02:17:48.897Z,12.1
2023-05-15T02:18:49.031Z,12.1
2023-05-15T02:19:48.820Z,12.0
2023-05-15T02:20:48.816Z,12.0
2023-05-15T02:21:48.783Z,12.0
2023-05-15T02:22:48.878Z,12.0
2023-05-15T02:23:48.796Z,12.0
2023-05-15T02:24:48.855Z,12.0
2023-05-15T02:25:48.817Z,12.0
2023-05-15T02:26:48.839Z,12.0
2023-05-15T02:27:48.804Z,12.1
2023-05-15T02:28:48.860Z,12.1
2023-05-15T02:29:48.986Z,12.0
2023-05-15T02:30:48.838Z,12.0
2023-05-15T02:31:48.852Z,12.1
2023-05-15T02:32:48.856Z,12.1
2023-05-15T02:33:48.810Z,12.1
2023-05-15T02:34:48.790Z,12.1
2023-05-15T02:35:48.875Z,12.1
2023-05-15T02:36:48.797Z,12.0
2023-05-15T02:37:48.866Z,12.0
2023-05-15T02:38:48.787Z,12.0
2023-05-15T02:39:48.814Z,12.0
2023-05-15T02:40:48.949Z,12.0
2023-05-15T02:41:48.785Z,12.0
2023-05-15T02:42:48.795Z,12.0
2023-05-15T02:43:48.782Z,12.0
2023-05-15T02:44:48.796Z,12.0
2023-05-15T02:45:48.843Z,12.0
2023-05-15T02:46:48.789Z,12.0
2023-05-15T02:47:48.828Z,12.0
2023-05-15T02:48:52.830Z,12.0
2023-05-15T02:49:48.778Z,12.0
2023-05-15T02:50:48.774Z,12.1
2023-05-15T02:51:48.989Z,12.0
2023-05-15T02:52:48.747Z,12.1
2023-05-15T02:53:48.788Z,12.1
2023-05-15T02:54:48.790Z,12.1
2023-05-15T02:55:48.767Z,12.1
2023-05-15T02:56:48.795Z,12.1
2023-05-15T02:57:48.779Z,12.1
2023-05-15T02:58:48.751Z,12.1
2023-05-15T02:59:48.797Z,12.1
2023-05-15T03:00:48.785Z,12.1
2023-05-15T03:01:48.779Z,12.1
2023-05-15T03:02:48.926Z,12.1
2023-05-15T03:03:48.819Z,12.1
2023-05-15T03:04:48.759Z,12.1
2023-05-15T03:05:48.758Z,12.1
2023-05-15T03:06:48.760Z,12.1
2023-05-15T03:07:48.728Z,12.1
2023-05-15T03:08:48.771Z,12.1
2023-05-15T03:09:48.754Z,12.1
2023-05-15T03:10:48.754Z,12.1
2023-05-15T03:11:48.735Z,12.1
2023-05-15T03:12:48.717Z,12.1
2023-05-15T03:13:48.934Z,12.1
2023-05-15T03:14:48.724Z,12.1
2023-05-15T03:15:48.765Z,12.1
2023-05-15T03:16:48.789Z,12.1
2023-05-15T03:17:48.749Z,12.1
2023-05-15T03:18:48.757Z,12.1
2023-05-15T03:19:48.710Z,12.1
2023-05-15T03:20:48.834Z,12.1
2023-05-15T03:21:48.706Z,12.1
2023-05-15T03:22:48.817Z,12.1
2023-05-15T03:23:48.720Z,12.1
2023-05-15T03:24:48.927Z,12.1
2023-05-15T03:25:48.709Z,12.1
2023-05-15T03:26:48.709Z,12.2
2023-05-15T03:27:48.706Z,12.2
2023-05-15T03:28:48.688Z,12.2
2023-05-15T03:29:48.699Z,12.2
2023-05-15T03:30:48.731Z,12.2
2023-05-15T03:31:48.844Z,12.2
2023-05-15T03:32:51.403Z,12.2
2023-05-15T03:33:48.733Z,12.2
2023-05-15T03:34:48.817Z,12.2
2023-05-15T03:35:48.880Z,12.2
2023-05-15T03:36:48.684Z,12.2
2023-05-15T03:37:48.662Z,12.2
2023-05-15T03:38:48.743Z,12.2
2023-05-15T03:40:50.976Z,12.2
2023-05-15T03:41:48.786Z,12.2
2023-05-15T03:42:48.721Z,12.2
2023-05-15T03:43:48.741Z,12.2
2023-05-15T03:44:48.693Z,12.2
2023-05-15T03:45:48.753Z,12.2
2023-05-15T03:46:48.857Z,12.2
2023-05-15T03:47:48.764Z,12.2
2023-05-15T03:48:48.697Z,12.2
2023-05-15T03:49:48.698Z,12.3
2023-05-15T03:50:48.685Z,12.3
2023-05-15T03:51:48.711Z,12.3
2023-05-15T03:52:48.665Z,12.3
2023-05-15T03:53:48.721Z,12.3
2023-05-15T03:54:48.643Z,12.3
2023-05-15T03:55:48.651Z,12.3
2023-05-15T03:56:48.730Z,12.3
2023-05-15T03:57:48.789Z,12.3
2023-05-15T03:58:48.641Z,12.3
2023-05-15T03:59:48.659Z,12.3
2023-05-15T04:00:48.687Z,12.3
2023-05-15T04:02:02.580Z,12.3
2023-05-15T04:02:48.810Z,12.3
2023-05-15T04:03:48.717Z,12.3
2023-05-15T04:04:48.754Z,12.3
2023-05-15T04:05:48.735Z,12.3
2023-05-15T04:06:48.650Z,12.3
2023-05-15T04:07:48.692Z,12.3
2023-05-15T04:08:48.845Z,12.3
2023-05-15T04:09:48.690Z,12.3
2023-05-15T04:10:48.821Z,12.3
2023-05-15T04:11:48.630Z,12.3
2023-05-15T04:12:48.668Z,12.3
2023-05-15T04:13:48.651Z,12.3
2023-05-15T04:14:48.614Z,12.3
2023-05-15T04:15:48.690Z,12.3
2023-05-15T04:16:48.649Z,12.3
2023-05-15T04:17:48.674Z,12.3
2023-05-15T04:18:48.707Z,12.3
2023-05-15T04:19:48.788Z,12.3
2023-05-15T04:20:48.637Z,12.3
2023-05-15T04:21:48.648Z,12.3
2023-05-15T04:22:48.613Z,12.3
2023-05-15T04:23:48.652Z,12.3
2023-05-15T04:24:48.651Z,12.3
2023-05-15T04:25:48.710Z,12.3
2023-05-15T04:26:48.629Z,12.4
2023-05-15T04:27:48.637Z,12.4
2023-05-15T04:29:00.223Z,12.4
2023-05-15T04:29:48.593Z,12.4
2023-05-15T04:30:48.815Z,12.4
2023-05-15T04:31:48.695Z,12.4
2023-05-15T04:32:48.676Z,12.4
2023-05-15T04:33:49.207Z,12.4
2023-05-15T04:34:48.644Z,12.4
2023-05-15T04:35:48.602Z,12.4
2023-05-15T04:36:48.639Z,12.4
2023-05-15T04:37:48.617Z,12.4
2023-05-15T04:38:48.617Z,12.4
2023-05-15T04:39:48.617Z,12.4
2023-05-15T04:40:48.656Z,12.4
2023-05-15T04:41:48.853Z,12.4
2023-05-15T04:42:48.619Z,12.4
2023-05-15T04:43:48.603Z,12.4
2023-05-15T04:44:48.728Z,12.4
2023-05-15T04:45:49.014Z,12.4
2023-05-15T04:46:48.757Z,12.4
2023-05-15T04:47:48.644Z,12.4
2023-05-15T04:48:48.625Z,12.4
2023-05-15T04:49:48.590Z,12.4
2023-05-15T04:50:48.597Z,12.4
2023-05-15T04:51:48.620Z,12.5
2023-05-15T04:52:48.787Z,12.5
2023-05-15T04:53:48.618Z,12.5
2023-05-15T04:54:48.559Z,12.5
2023-05-15T04:55:48.565Z,12.5
2023-05-15T04:56:48.605Z,12.5
2023-05-15T04:57:48.620Z,12.5
2023-05-15T04:58:50.661Z,12.5
2023-05-15T04:59:48.673Z,12.5
2023-05-15T05:00:48.625Z,12.6
2023-05-15T05:01:48.652Z,12.6
2023-05-15T05:02:48.642Z,12.6
2023-05-15T05:03:48.665Z,12.6
2023-05-15T05:04:48.547Z,12.6
2023-05-15T05:05:48.570Z,12.6
2023-05-15T05:06:48.621Z,12.7
2023-05-15T05:07:48.575Z,12.7
2023-05-15T05:08:48.562Z,12.7
2023-05-15T05:09:48.575Z,12.7
2023-05-15T05:10:48.563Z,12.7
2023-05-15T05:11:48.534Z,12.8
2023-05-15T05:12:48.571Z,12.8
2023-05-15T05:13:48.688Z,12.8
2023-05-15T05:14:48.557Z,12.8
2023-05-15T05:15:48.579Z,12.8
2023-05-15T05:16:48.546Z,12.9
2023-05-15T05:17:48.599Z,12.9
2023-05-15T05:18:48.603Z,12.9
2023-05-15T05:19:48.584Z,12.9
2023-05-15T05:20:48.564Z,12.9
2023-05-15T05:21:48.550Z,12.9
2023-05-15T05:22:48.564Z,13.0
2023-05-15T05:23:48.594Z,13.0
2023-05-15T05:24:48.672Z,13.0
2023-05-15T05:25:48.573Z,13.0
2023-05-15T05:26:48.553Z,13.0
2023-05-15T05:27:48.552Z,13.0
2023-05-15T05:28:48.551Z,13.0
2023-05-15T05:29:48.578Z,13.1
2023-05-15T05:30:48.591Z,13.1
2023-05-15T05:31:48.574Z,13.1
2023-05-15T05:32:48.580Z,13.1
2023-05-15T05:33:48.608Z,13.1
2023-05-15T05:34:48.556Z,13.1
2023-05-15T05:35:48.706Z,13.1
2023-05-15T05:36:48.558Z,13.1
2023-05-15T05:37:48.560Z,13.2
2023-05-15T05:38:48.516Z,13.2
2023-05-15T05:39:48.546Z,13.2
2023-05-15T05:40:48.518Z,13.2
2023-05-15T05:41:48.569Z,13.2
2023-05-15T05:42:48.529Z,13.2
2023-05-15T05:43:48.603Z,13.2
2023-05-15T05:44:48.549Z,13.3
2023-05-15T05:45:48.556Z,13.3
2023-05-15T05:46:48.724Z,13.3
2023-05-15T05:47:48.533Z,13.3
2023-05-15T05:48:48.536Z,13.3
2023-05-15T05:49:48.534Z,13.3
2023-05-15T05:50:48.495Z,13.3
2023-05-15T05:51:48.513Z,13.3
2023-05-15T05:52:48.509Z,13.3
2023-05-15T05:53:48.532Z,13.3
2023-05-15T05:54:48.489Z,13.3
2023-05-15T05:55:48.514Z,13.3
2023-05-15T05:56:48.521Z,13.3
2023-05-15T05:57:48.673Z,13.4
2023-05-15T05:58:48.519Z,13.4
2023-05-15T05:59:48.494Z,13.4
2023-05-15T06:00:48.524Z,13.4
2023-05-15T06:01:48.520Z,13.4
2023-05-15T06:02:48.666Z,13.4
2023-05-15T06:03:48.668Z,13.4
2023-05-15T06:04:48.508Z,13.4
2023-05-15T06:05:48.459Z,13.4
2023-05-15T06:06:48.517Z,13.4
2023-05-15T06:07:48.508Z,13.4
2023-05-15T06:08:48.577Z,13.4
2023-05-15T06:09:48.518Z,13.4
2023-05-15T06:10:48.498Z,13.4
2023-05-15T06:11:48.482Z,13.5
2023-05-15T06:12:48.483Z,13.5
2023-05-15T06:13:48.558Z,13.5
2023-05-15T06:14:48.653Z,13.5
2023-05-15T06:15:48.784Z,13.5
2023-05-15T06:16:48.521Z,13.6
2023-05-15T06:17:48.517Z,13.6
2023-05-15T06:18:49.720Z,13.6
2023-05-15T06:20:03.200Z,13.6
2023-05-15T06:20:48.848Z,13.6
2023-05-15T06:21:48.499Z,13.7
2023-05-15T06:22:48.700Z,13.7
2023-05-15T06:23:48.476Z,13.7
2023-05-15T06:24:48.466Z,13.7
2023-05-15T06:25:48.530Z,13.7
2023-05-15T06:26:50.293Z,13.8
2023-05-15T06:27:48.482Z,13.8
2023-05-15T06:28:48.556Z,13.8
2023-05-15T06:29:48.466Z,13.9
2023-05-15T06:30:48.478Z,13.9
2023-05-15T06:31:48.523Z,13.9
2023-05-15T06:32:48.536Z,14.0
2023-05-15T06:33:48.477Z,14.0
2023-05-15T06:34:48.426Z,14.1
2023-05-15T06:35:48.449Z,14.1
2023-05-15T06:36:48.475Z,14.2
2023-05-15T06:37:48.435Z,14.2
2023-05-15T06:38:48.443Z,14.2
2023-05-15T06:39:48.416Z,14.3
2023-05-15T06:40:48.648Z,14.3
2023-05-15T06:41:48.455Z,14.3
2023-05-15T06:42:48.415Z,14.3
2023-05-15T06:43:48.497Z,14.4
2023-05-15T06:44:48.459Z,14.4
2023-05-15T06:45:48.522Z,14.4
2023-05-15T06:46:48.491Z,14.5
2023-05-15T06:47:48.580Z,14.5
2023-05-15T06:48:48.451Z,14.6
2023-05-15T06:49:48.467Z,14.6
2023-05-15T06:50:48.545Z,14.6
2023-05-15T06:51:48.440Z,14.6
2023-05-15T06:52:48.451Z,14.6
2023-05-15T06:53:48.483Z,14.6
2023-05-15T06:55:48.471Z,14.6
2023-05-15T06:56:48.417Z,14.6
2023-05-15T06:57:48.476Z,14.6
2023-05-15T06:58:48.394Z,14.6
2023-05-15T06:59:48.420Z,14.6
2023-05-15T07:00:48.450Z,14.6
2023-05-15T07:01:48.728Z,14.6
2023-05-15T07:02:48.508Z,14.6
2023-05-15T07:03:48.447Z,14.6
2023-05-15T07:05:10.908Z,14.6
2023-05-15T07:05:48.451Z,14.6
2023-05-15T07:06:48.430Z,14.6
2023-05-15T07:07:48.396Z,14.6
2023-05-15T07:08:48.558Z,14.6
2023-05-15T07:09:48.465Z,14.6
2023-05-15T07:10:48.418Z,14.6
2023-05-15T07:11:48.443Z,14.6
2023-05-15T07:12:48.536Z,14.6
2023-05-15T07:13:48.973Z,14.6
2023-05-15T07:14:48.478Z,14.6
2023-05-15T07:15:48.405Z,14.6
2023-05-15T07:16:48.484Z,14.6
2023-05-15T07:17:48.472Z,14.5
2023-05-15T07:18:48.535Z,14.5
2023-05-15T07:19:48.394Z,14.5
2023-05-15T07:20:48.406Z,14.4
2023-05-15T07:21:48.404Z,14.4
2023-05-15T07:22:56.412Z,14.4
2023-05-15T07:23:48.390Z,14.4
2023-05-15T07:24:48.368Z,14.4
2023-05-15T07:25:48.485Z,14.4
2023-05-15T07:26:58.121Z,14.3
2023-05-15T07:27:48.389Z,14.3
2023-05-15T07:28:48.430Z,14.3
2023-05-15T07:29:48.395Z,14.3
2023-05-15T07:30:48.397Z,14.3
2023-05-15T07:31:48.431Z,14.3
2023-05-15T07:32:48.406Z,14.3
2023-05-15T07:33:48.387Z,14.2
2023-05-15T07:34:48.371Z,14.2
2023-05-15T07:35:48.378Z,14.2
2023-05-15T07:36:48.370Z,14.2
2023-05-15T07:37:48.410Z,14.2
2023-05-15T07:38:48.432Z,14.2
2023-05-15T07:39:48.439Z,14.2
2023-05-15T07:40:48.379Z,14.2
2023-05-15T07:41:48.362Z,14.3
2023-05-15T07:42:48.375Z,14.3
2023-05-15T07:43:48.407Z,14.2
2023-05-15T07:44:49.751Z,14.3
2023-05-15T07:45:48.532Z,14.3
2023-05-15T07:46:48.497Z,14.3
2023-05-15T07:47:48.408Z,14.2
2023-05-15T07:48:48.468Z,14.2
2023-05-15T07:49:48.426Z,14.3
2023-05-15T07:50:48.372Z,14.3
2023-05-15T07:51:48.360Z,14.3
2023-05-15T07:52:48.374Z,14.3
2023-05-15T07:53:48.348Z,14.3
2023-05-15T07:54:48.389Z,14.3
2023-05-15T07:55:48.373Z,14.3
2023-05-15T07:56:48.368Z,14.3
2023-05-15T07:57:53.562Z,14.3
2023-05-15T07:58:48.367Z,14.3
2023-05-15T07:59:48.373Z,14.3
2023-05-15T08:00:48.364Z,14.3
2023-05-15T08:01:48.353Z,14.3
2023-05-15T08:02:48.388Z,14.3
2023-05-15T08:03:51.360Z,14.3
2023-05-15T08:04:48.312Z,14.3
2023-05-15T08:05:48.470Z,14.3
2023-05-15T08:06:48.330Z,14.3
2023-05-15T08:07:48.307Z,14.3
2023-05-15T08:08:48.334Z,14.3
2023-05-15T08:09:48.464Z,14.3
2023-05-15T08:10:48.444Z,14.3
2023-05-15T08:11:48.316Z,14.3
2023-05-15T08:12:48.330Z,14.3
2023-05-15T08:13:48.387Z,14.3
2023-05-15T08:14:48.349Z,14.3
2023-05-15T08:15:48.365Z,14.3
2023-05-15T08:16:48.343Z,14.3
2023-05-15T08:17:48.344Z,14.3
2023-05-15T08:18:48.352Z,14.3
2023-05-15T08:19:48.422Z,14.3
2023-05-15T08:20:48.553Z,14.3
2023-05-15T08:21:48.309Z,14.3
2023-05-15T08:22:48.385Z,14.2
2023-05-15T08:23:48.326Z,14.2
2023-05-15T08:24:48.365Z,14.2
2023-05-15T08:25:48.295Z,14.2
2023-05-15T08:26:48.315Z,14.2
2023-05-15T08:27:48.374Z,14.2
2023-05-15T08:28:48.342Z,14.2
2023-05-15T08:29:48.389Z,14.2
2023-05-15T08:30:48.291Z,14.2
2023-05-15T08:31:48.466Z,14.2
2023-05-15T08:32:48.339Z,14.2
2023-05-15T08:33:48.301Z,14.2
2023-05-15T08:34:48.370Z,14.2
2023-05-15T08:35:48.330Z,14.2
2023-05-15T08:36:48.313Z,14.2
2023-05-15T08:37:48.292Z,14.2
2023-05-15T08:38:48.298Z,14.2
2023-05-15T08:39:48.337Z,14.2
2023-05-15T08:40:48.376Z,14.2
2023-05-15T08:41:48.310Z,14.1
2023-05-15T08:42:48.446Z,14.1
2023-05-15T08:43:48.418Z,14.1
2023-05-15T08:44:48.292Z,14.1
2023-05-15T08:45:48.282Z,14.1
2023-05-15T08:46:48.352Z,14.1
2023-05-15T08:47:48.403Z,14.2
2023-05-15T08:48:48.397Z,14.1
2023-05-15T08:49:48.268Z,14.1
2023-05-15T08:50:48.317Z,14.1
2023-05-15T08:51:48.273Z,14.1
2023-05-15T08:52:48.290Z,14.1
2023-05-15T08:53:48.259Z,14.1
2023-05-15T08:54:48.685Z,14.1
2023-05-15T08:55:48.359Z,14.1
2023-05-15T08:56:48.274Z,14.1
2023-05-15T08:57:48.354Z,14.2
2023-05-15T08:58:48.305Z,14.2
2023-05-15T08:59:48.280Z,14.2
2023-05-15T09:00:48.373Z,14.2
2023-05-15T09:01:48.337Z,14.2
2023-05-15T09:02:48.482Z,14.2
2023-05-15T09:03:48.380Z,14.2
2023-05-15T09:04:48.474Z,14.2
2023-05-15T09:05:48.252Z,14.2
2023-05-15T09:06:48.285Z,14.2
2023-05-15T09:07:48.264Z,14.3
2023-05-15T09:08:48.347Z,14.3
2023-05-15T09:09:48.370Z,14.3
2023-05-15T09:10:48.330Z,14.3
2023-05-15T09:11:48.274Z,14.4
2023-05-15T09:12:48.336Z,14.4
2023-05-15T09:13:48.353Z,14.3
2023-05-15T09:14:48.293Z,14.4
2023-05-15T09:15:48.522Z,14.4
2023-05-15T09:16:48.301Z,14.4
2023-05-15T09:17:48.263Z,14.4
2023-05-15T09:18:48.292Z,14.4
2023-05-15T09:19:48.265Z,14.4
2023-05-15T09:20:48.301Z,14.4
2023-05-15T09:21:48.240Z,14.4
2023-05-15T09:22:48.266Z,14.4
2023-05-15T09:23:48.247Z,14.4
2023-05-15T09:24:48.514Z,14.4
2023-05-15T09:25:48.295Z,14.4
2023-05-15T09:26:48.754Z,14.4
2023-05-15T09:27:48.239Z,14.4
2023-05-15T09:28:48.313Z,14.4
2023-05-15T09:29:48.205Z,14.3
2023-05-15T09:30:48.231Z,14.3
2023-05-15T09:31:48.346Z,14.3
2023-05-15T09:32:48.307Z,14.3
2023-05-15T09:33:48.340Z,14.3
2023-05-15T09:34:48.211Z,14.4
2023-05-15T09:35:48.322Z,14.4
2023-05-15T09:36:48.212Z,14.4
2023-05-15T09:37:48.387Z,14.4
2023-05-15T09:38:48.446Z,14.4
2023-05-15T09:39:48.230Z,14.4
2023-05-15T09:40:48.322Z,14.5
2023-05-15T09:41:48.213Z,14.5
2023-05-15T09:42:48.203Z,14.5
2023-05-15T09:43:48.233Z,14.6
2023-05-15T09:44:48.203Z,14.6
2023-05-15T09:45:48.394Z,14.6
2023-05-15T09:46:48.258Z,14.6
2023-05-15T09:47:48.318Z,14.6
2023-05-15T09:48:48.228Z,14.6
2023-05-15T09:49:48.323Z,14.6
2023-05-15T09:50:48.281Z,14.6
2023-05-15T09:51:48.207Z,14.6
2023-05-15T09:52:48.219Z,14.6
2023-05-15T09:53:48.215Z,14.6
2023-05-15T09:54:50.499Z,14.6
2023-05-15T09:55:48.195Z,14.6
2023-05-15T09:56:48.210Z,14.6
2023-05-15T09:57:48.207Z,14.6
2023-05-15T09:58:48.189Z,14.6
2023-05-15T09:59:48.177Z,14.6
2023-05-15T10:00:49.445Z,14.6
2023-05-15T10:01:48.258Z,14.6
2023-05-15T10:02:48.239Z,14.6
2023-05-15T10:03:48.209Z,14.6
2023-05-15T10:04:48.231Z,14.6
2023-05-15T10:05:48.272Z,14.6
2023-05-15T10:06:48.203Z,14.6
2023-05-15T10:07:48.202Z,14.6
2023-05-15T10:08:48.168Z,14.6
2023-05-15T10:09:48.218Z,14.6
2023-05-15T10:10:48.177Z,14.6
2023-05-15T10:11:48.385Z,14.6
2023-05-15T10:12:48.436Z,14.6
2023-05-15T10:13:48.197Z,14.6
2023-05-15T10:14:48.171Z,14.6
2023-05-15T10:15:48.274Z,14.6
2023-05-15T10:16:48.255Z,14.6
2023-05-15T10:17:48.251Z,14.6
2023-05-15T10:18:48.220Z,14.6
2023-05-15T10:19:57.725Z,14.6
2023-05-15T10:20:48.193Z,14.6
2023-05-15T10:21:48.186Z,14.5
2023-05-15T10:22:48.376Z,14.5
2023-05-15T10:23:48.170Z,14.5
2023-05-15T10:24:48.174Z,14.5
2023-05-15T10:25:48.178Z,14.5
2023-05-15T10:26:48.148Z,14.5
2023-05-15T10:27:48.273Z,14.5
2023-05-15T10:28:48.135Z,14.5
2023-05-15T10:29:48.262Z,14.5
2023-05-15T10:30:48.161Z,14.5
2023-05-15T10:31:48.226Z,14.6
2023-05-15T10:32:48.180Z,14.6
2023-05-15T10:33:48.438Z,14.6
2023-05-15T10:34:48.196Z,14.6
2023-05-15T10:35:48.248Z,14.6
2023-05-15T10:36:48.110Z,14.6
2023-05-15T10:37:48.246Z,14.6
2023-05-15T10:38:48.161Z,14.6
2023-05-15T10:39:48.190Z,14.6
2023-05-15T10:40:48.189Z,14.6
2023-05-15T10:41:48.170Z,14.6
2023-05-15T10:42:48.166Z,14.6
2023-05-15T10:43:48.112Z,14.6
2023-05-15T10:44:48.565Z,14.6
2023-05-15T10:45:48.201Z,14.6
2023-05-15T10:46:48.170Z,14.6
2023-05-15T10:47:48.305Z,14.6
2023-05-15T10:48:48.186Z,14.6
2023-05-15T10:49:48.153Z,14.6
2023-05-15T10:50:48.179Z,14.6
2023-05-15T10:51:48.213Z,14.6
2023-05-15T10:52:48.429Z,14.6
2023-05-15T10:53:48.433Z,14.6
2023-05-15T10:54:48.153Z,14.6
2023-05-15T10:55:48.262Z,14.7
2023-05-15T10:56:49.957Z,14.7
2023-05-15T10:57:48.148Z,14.7
2023-05-15T10:58:48.112Z,14.7
2023-05-15T10:59:48.253Z,14.7
2023-05-15T11:00:48.142Z,14.7
2023-05-15T11:01:48.230Z,14.7
2023-05-15T11:02:48.153Z,14.7
2023-05-15T11:03:49.635Z,14.6
2023-05-15T11:04:48.226Z,14.6
2023-05-15T11:05:48.126Z,14.6
2023-05-15T11:06:48.288Z,14.6
2023-05-15T11:07:48.196Z,14.6
2023-05-15T11:08:48.100Z,14.6
2023-05-15T11:09:48.102Z,14.6
2023-05-15T11:10:48.118Z,14.6
2023-05-15T11:11:48.122Z,14.6
2023-05-15T11:12:48.168Z,14.6
2023-05-15T11:13:48.078Z,14.6
2023-05-15T11:14:48.105Z,14.6
2023-05-15T11:15:48.279Z,14.5
2023-05-15T11:16:48.161Z,14.5
2023-05-15T11:17:48.099Z,14.5
2023-05-15T11:18:48.248Z,14.5
2023-05-15T11:19:48.055Z,14.5
2023-05-15T11:20:48.122Z,14.5
2023-05-15T11:21:48.092Z,14.5
2023-05-15T11:22:48.062Z,14.5
2023-05-15T11:23:48.100Z,14.5
2023-05-15T11:24:48.102Z,14.6
2023-05-15T11:25:48.112Z,14.6
2023-05-15T11:26:48.134Z,14.7
2023-05-15T11:27:48.063Z,14.8
2023-05-15T11:28:48.068Z,14.9
2023-05-15T11:29:48.093Z,14.9
2023-05-15T11:30:48.190Z,15.0
2023-05-15T11:31:48.062Z,15.1
2023-05-15T11:32:48.156Z,15.2
2023-05-15T11:33:48.398Z,15.3
2023-05-15T11:34:48.094Z,15.3
2023-05-15T11:35:48.209Z,15.4
2023-05-15T11:36:48.103Z,15.5
2023-05-15T11:37:48.083Z,15.6
2023-05-15T11:38:48.066Z,15.7
2023-05-15T11:39:48.210Z,15.8
2023-05-15T11:40:48.084Z,15.8
2023-05-15T11:41:48.127Z,15.9
2023-05-15T11:42:48.035Z,16.0
2023-05-15T11:43:48.057Z,16.0
2023-05-15T11:44:48.042Z,16.1
2023-05-15T11:45:48.042Z,16.1
2023-05-15T11:46:48.115Z,16.2
2023-05-15T11:47:48.066Z,16.3
2023-05-15T11:48:48.179Z,16.3
2023-05-15T11:49:48.066Z,16.4
2023-05-15T11:50:48.360Z,16.4
2023-05-15T11:51:48.131Z,16.4
2023-05-15T11:52:48.034Z,16.4
2023-05-15T11:53:48.025Z,16.4
2023-05-15T11:54:48.020Z,16.4
2023-05-15T11:55:48.029Z,16.4
2023-05-15T11:56:48.114Z,16.4
2023-05-15T11:57:48.050Z,16.4
2023-05-15T11:58:48.067Z,16.4
2023-05-15T11:59:48.044Z,16.5
2023-05-15T12:00:48.062Z,16.5
2023-05-15T12:01:48.257Z,16.6
2023-05-15T12:02:48.253Z,16.6
2023-05-15T12:03:48.308Z,16.6
2023-05-15T12:04:48.222Z,16.7
2023-05-15T12:05:58.219Z,16.7
2023-05-15T12:06:48.060Z,16.7
2023-05-15T12:07:48.047Z,16.8
2023-05-15T12:08:48.054Z,16.8
2023-05-15T12:09:48.073Z,16.9
2023-05-15T12:10:48.087Z,17.0
2023-05-15T12:11:48.039Z,17.0
2023-05-15T12:12:48.209Z,17.1
2023-05-15T12:13:48.022Z,17.1
2023-05-15T12:14:48.041Z,17.1
2023-05-15T12:15:48.052Z,17.2
2023-05-15T12:16:48.158Z,17.2
2023-05-15T12:17:48.032Z,17.2
2023-05-15T12:18:48.159Z,17.2
2023-05-15T12:19:48.048Z,17.2
2023-05-15T12:20:48.063Z,17.1
2023-05-15T12:21:48.025Z,17.1
2023-05-15T12:22:47.987Z,17.1
2023-05-15T12:23:59.491Z,17.0
2023-05-15T12:24:48.038Z,16.9
2023-05-15T12:25:48.071Z,16.9
2023-05-15T12:26:48.053Z,16.8
2023-05-15T12:27:48.061Z,16.8
2023-05-15T12:28:48.018Z,16.8
2023-05-15T12:29:48.023Z,16.7
2023-05-15T12:30:48.205Z,16.7
2023-05-15T12:31:48.080Z,16.7
2023-05-15T12:32:48.137Z,16.7
2023-05-15T12:33:48.035Z,16.6
2023-05-15T12:34:48.203Z,16.6
2023-05-15T12:35:48.033Z,16.6
2023-05-15T12:36:48.039Z,16.5
2023-05-15T12:37:48.039Z,16.5
2023-05-15T12:38:48.029Z,16.5
2023-05-15T12:39:47.994Z,16.5
2023-05-15T12:40:48.148Z,16.5
2023-05-15T12:41:49.707Z,16.5
2023-05-15T12:42:48.059Z,16.5
2023-05-15T12:43:47.984Z,16.5
2023-05-15T12:44:47.983Z,16.5
2023-05-15T12:45:48.332Z,16.5
2023-05-15T12:46:48.028Z,16.5
2023-05-15T12:47:48.018Z,16.5
2023-05-15T12:48:48.013Z,16.6
2023-05-15T12:49:47.997Z,16.6
2023-05-15T12:50:47.978Z,16.7
2023-05-15T12:51:48.010Z,16.7
2023-05-15T12:52:48.005Z,16.7
2023-05-15T12:53:48.020Z,16.7
2023-05-15T12:54:47.971Z,16.7
2023-05-15T12:55:47.960Z,16.7
2023-05-15T12:56:48.178Z,16.7
2023-05-15T12:57:48.050Z,16.6
2023-05-15T12:58:48.047Z,16.7
2023-05-15T12:59:47.980Z,16.6
2023-05-15T13:00:48.036Z,16.6
2023-05-15T13:01:48.019Z,16.6
2023-05-15T13:02:48.141Z,16.7
2023-05-15T13:03:48.114Z,16.7
2023-05-15T13:04:48.040Z,16.7
2023-05-15T13:05:48.001Z,16.8
2023-05-15T13:06:48.114Z,16.9
2023-05-15T13:07:48.220Z,16.9
2023-05-15T13:08:48.059Z,16.9
2023-05-15T13:09:47.984Z,17.0
2023-05-15T13:10:47.965Z,17.0
2023-05-15T13:11:47.950Z,17.0
2023-05-15T13:12:47.924Z,17.0
2023-05-15T13:13:48.019Z,17.0
2023-05-15T13:14:47.950Z,17.0
2023-05-15T13:15:47.984Z,17.0
2023-05-15T13:16:47.943Z,17.0
2023-05-15T13:17:48.119Z,17.0
2023-05-15T13:18:48.236Z,17.0
2023-05-15T13:19:48.155Z,17.0
2023-05-15T13:20:48.120Z,17.0
2023-05-15T13:21:47.977Z,17.0
2023-05-15T13:22:47.960Z,17.0
2023-05-15T13:23:47.941Z,17.0